Search for airport 
image banner adimage banner adimage banner ad
image banner ad

MHTE - Tela

Located in , Honduras

ICAO - MHTE, IATA - TEA

Data provided by Airmate  

General information

Coordinates: N15°46'32" W87°28'35"
Elevation is 7 feet MSL.
 
View others Airports in Atlantida

Operational data

Special qualification required
Current time UTC:
Current local time:
Weather
METAR: MHTE 082100Z 08006KT 9999 SCT026TCU 32/29 Q1009
View NOTAMs / SUP AIP / TFR affecting this airport [VIEW]
Communications frequencies: [VIEW]

Runways:

RWY identifierQFULength (ft)Width (ft)SurfaceLDA (ft)
0658°443598ASP
24443598UNK

Airport contact information

Address: Honduras

Satellite view of MHTE